• Join FlightAware (Why Join?)
  • Login
  • US Flag 
11:53AM EST


 

Airport Tracker/Info


-or-


 

Live Flight TrackerFlight Track Log ✈ ASQ5678 ✈ 03-May-2013 ✈ KMKE - KIAH

Flight Track Log - Related Links

Times and Time Zones

All times are in EDT time to prevent confusion due to time zone crossing. See the ASQ5678 flight status page for this flight to view local times or setup timezone preferences in your user account.

Time Position Orientation Groundspeed Altitude Reporting Facility
EDT Latitude Longitude Course Direction KTS MPH feet Rate Location/Type
09:00AM 42.9500 -87.8833 92° East 161 185 1,400  Level KMKE
09:00AM 42.9494 -87.8628 92° East 128 147 2,200 1,500 Climbing Chicago Center
09:01AM 42.9547 -87.7858 85° East 199 229 3,700 2,160 Climbing Chicago Center
09:02AM 42.9061 -87.7489 151° Southeast 249 287 6,700 2,700 Climbing Chicago Center
09:03AM 42.8808 -87.8422 250° West 262 302 9,300 2,280 Climbing Chicago Center
09:04AM 42.8564 -87.9417 251° West 272 313 11,500 1,680 Climbing Chicago Center
09:05AM 42.7922 -87.9828 205° Southwest 282 325 12,800 1,140 Climbing Chicago Center
09:06AM 42.7044 -87.9808 179° South 309 356 13,900 1,140 Climbing Chicago Center
09:08AM 42.6092 -87.9925 185° South 338 389 15,200 1,200 Climbing Chicago Center
09:09AM 42.5108 -87.9997 183° South 350 403 16,500 1,320 Climbing Chicago Center
09:10AM 42.3964 -88.0108 184° South 352 405 18,000 1,320 Climbing Chicago Center
09:11AM 42.3053 -88.0189 184° South 346 398 19,300 1,320 Climbing Chicago Center
09:12AM 42.2094 -88.0267 183° South 345 397 20,800 1,380 Climbing Chicago Center
09:13AM 42.1133 -88.0364 184° South 348 400 22,200 1,320 Climbing Chicago Center
09:14AM 42.0161 -88.0442 183° South 350 403 23,600 1,440 Climbing Chicago Center
09:15AM 41.9011 -88.0536 183° South 348 400 25,200 1,440 Climbing Chicago Center
09:16AM 41.8053 -88.0617 184° South 347 399 26,600 1,320 Climbing Chicago Center
09:17AM 41.7100 -88.0697 184° South 344 396 28,000 1,320 Climbing Chicago Center
09:18AM 41.6161 -88.0778 184° South 340 391 29,400 1,320 Climbing Chicago Center
09:19AM 41.5239 -88.0850 183° South 336 387 30,800 1,380 Climbing Chicago Center
09:20AM 41.4236 -88.0939 184° South 335 386 32,300 1,260 Climbing Chicago Center
09:22AM 41.2639 -88.1081 184° South 320 368 34,500 1,080 Climbing Kansas City Center
09:23AM 41.1864 -88.1614 207° Southwest 311 358 35,500 720 Climbing Kansas City Center
09:24AM 41.1111 -88.2139 208° Southwest 309 356 36,000 360 Climbing Kansas City Center
09:24AM 41.0969 -88.2253 211° Southwest 305 351 36,000  Level Chicago Center
09:25AM 40.9994 -88.2903 207° Southwest 317 365 36,000  Level Chicago Center
09:26AM 40.9131 -88.3500 208° Southwest 341 392 36,000  Level Chicago Center
09:27AM 40.8219 -88.4125 207° Southwest 363 418 36,000  Level Chicago Center
09:28AM 40.7269 -88.4758 207° Southwest 377 434 36,000  Level Chicago Center
09:29AM 40.6328 -88.5397 207° Southwest 382 440 36,000  Level Chicago Center
09:30AM 40.5375 -88.6033 207° Southwest 384 442 36,000  Level Chicago Center
09:31AM 40.4392 -88.6683 207° Southwest 384 442 36,000  Level Chicago Center
09:32AM 40.3422 -88.7328 207° Southwest 387 445 36,000  Level Chicago Center
09:33AM 40.2264 -88.8086 207° Southwest 387 445 36,000  Level Chicago Center
09:34AM 40.1300 -88.8711 206° Southwest 386 444 36,000  Level Chicago Center
09:35AM 40.0708 -88.9103 207° Southwest 385 443 36,000  Level Kansas City Center
09:36AM 39.9747 -88.9736 207° Southwest 386 444 36,000  Level Kansas City Center
09:37AM 39.8594 -89.0492 207° Southwest 386 444 36,000  Level Kansas City Center
09:38AM 39.7633 -89.1128 207° Southwest 385 443 36,000  Level Kansas City Center
09:39AM 39.6678 -89.1744 206° Southwest 384 442 36,000  Level Kansas City Center
09:40AM 39.5714 -89.2361 206° Southwest 385 443 36,000  Level Kansas City Center
09:41AM 39.4797 -89.2969 207° Southwest 384 442 36,000  Level Kansas City Center
09:42AM 39.3842 -89.3583 206° Southwest 384 442 36,000  Level Kansas City Center
09:43AM 39.2886 -89.4189 206° Southwest 383 441 36,000  Level Kansas City Center
09:44AM 39.1739 -89.4914 206° Southwest 382 440 36,000  Level Kansas City Center
09:45AM 39.0775 -89.5542 207° Southwest 380 437 36,000  Level Kansas City Center
09:46AM 38.9822 -89.6153 207° Southwest 383 441 36,000  Level Kansas City Center
09:47AM 38.8881 -89.6750 206° Southwest 385 443 36,000  Level Kansas City Center
09:48AM 38.7911 -89.7361 206° Southwest 386 444 36,000  Level Kansas City Center
09:49AM 38.6956 -89.7961 206° Southwest 383 441 36,000  Level Kansas City Center
09:50AM 38.5989 -89.8567 206° Southwest 383 441 36,000  Level Kansas City Center
09:51AM 38.5025 -89.9167 206° Southwest 383 441 36,000  Level Kansas City Center
09:52AM 38.4053 -89.9772 206° Southwest 384 442 36,000  Level Kansas City Center
09:53AM 38.2897 -90.0497 206° Southwest 385 443 36,000  Level Kansas City Center
09:55AM 38.1922 -90.1100 206° Southwest 387 445 36,000  Level Kansas City Center
09:56AM 38.0947 -90.1706 206° Southwest 388 447 36,000  Level Kansas City Center
09:57AM 37.9978 -90.2306 206° Southwest 387 445 36,000  Level Kansas City Center
09:58AM 37.8992 -90.2914 206° Southwest 392 451 36,000  Level Kansas City Center
09:59AM 37.8022 -90.3494 205° Southwest 387 445 36,000  Level Kansas City Center
10:00AM 37.7056 -90.4092 206° Southwest 388 447 36,000  Level Kansas City Center
10:01AM 37.6092 -90.4692 206° Southwest 386 444 36,000  Level Kansas City Center
10:02AM 37.4939 -90.5397 206° Southwest 385 443 36,000  Level Kansas City Center
10:03AM 37.3961 -90.5972 205° Southwest 386 444 36,000  Level Kansas City Center
10:04AM 37.2986 -90.6581 206° Southwest 387 445 36,000  Level Kansas City Center
10:05AM 37.2169 -90.7111 207° Southwest 390 449 36,000  Level Memphis Center
10:06AM 37.1106 -90.7783 207° Southwest 390 449 36,000  Level Memphis Center
10:07AM 37.0206 -90.8272 203° Southwest 384 442 36,000  Level Memphis Center
10:08AM 36.9203 -90.8889 206° Southwest 390 449 36,000  Level Memphis Center
10:09AM 36.8242 -90.9453 205° Southwest 390 449 36,000  Level Memphis Center
10:10AM 36.7261 -91.0042 206° Southwest 390 449 36,000  Level Memphis Center
10:11AM 36.6278 -91.0628 206° Southwest 390 449 36,000  Level Memphis Center
10:12AM 36.5275 -91.1186 204° Southwest 390 449 36,000  Level Memphis Center
10:13AM 36.4311 -91.1797 207° Southwest 397 457 36,000  Level Memphis Center
10:14AM 36.3328 -91.2356 205° Southwest 397 457 36,000  Level Memphis Center
10:15AM 36.2303 -91.2961 205° Southwest 397 457 36,000  Level Memphis Center
10:16AM 36.1317 -91.3514 204° Southwest 403 464 36,000  Level Memphis Center
10:17AM 36.0292 -91.4092 205° Southwest 403 464 36,000  Level Memphis Center
10:18AM 35.9347 -91.4644 205° Southwest 398 458 36,000  Level Memphis Center
10:19AM 35.8364 -91.5219 205° Southwest 392 451 36,000  Level Memphis Center
10:20AM 35.7378 -91.5794 205° Southwest 392 451 36,000  Level Memphis Center
10:21AM 35.6392 -91.6369 205° Southwest 387 445 36,000  Level Memphis Center
10:22AM 35.5406 -91.6942 205° Southwest 387 445 36,000  Level Memphis Center
10:23AM 35.4378 -91.7508 204° Southwest 398 458 36,000  Level Memphis Center
10:24AM 35.3369 -91.8106 206° Southwest 403 464 36,000  Level Memphis Center
10:25AM 35.2383 -91.8647 204° Southwest 403 464 36,000  Level Memphis Center
10:26AM 35.1375 -91.9211 205° Southwest 403 464 36,000  Level Memphis Center
10:27AM 35.0344 -91.9775 204° Southwest 403 464 36,000  Level Memphis Center
10:28AM 34.9356 -92.0367 206° Southwest 403 464 36,000  Level Memphis Center
10:29AM 34.8369 -92.0903 204° Southwest 403 464 36,000  Level Memphis Center
10:30AM 34.7381 -92.1464 205° Southwest 398 458 36,000  Level Memphis Center
10:31AM 34.6331 -92.1869 198° South 404 465 36,000  Level Memphis Center
10:32AM 34.5200 -92.2097 189° South 404 465 36,000  Level Memphis Center
10:33AM 34.4092 -92.2325 190° South 409 471 36,000  Level Memphis Center
10:34AM 34.2961 -92.2528 188° South 414 476 36,000  Level Memphis Center
10:35AM 34.1747 -92.2728 188° South 414 476 36,000  Level Memphis Center
10:37AM 33.9614 -92.3153 189° South 408 470 36,000  Level Fort Worth Center
10:38AM 33.8494 -92.3367 189° South 408 470 36,000  Level Fort Worth Center
10:39AM 33.7336 -92.3586 189° South 417 480 36,000  Level Fort Worth Center
10:40AM 33.6258 -92.3772 188° South 417 480 36,000  Level Fort Worth Center
10:41AM 33.5078 -92.3989 189° South 417 480 36,000  Level Fort Worth Center
10:42AM 33.3958 -92.4178 188° South 417 480 36,000  Level Fort Worth Center
10:43AM 33.2797 -92.4392 189° South 422 486 36,000  Level Fort Worth Center
10:44AM 33.1658 -92.4606 189° South 428 493 36,000  Level Fort Worth Center
10:45AM 33.0519 -92.4817 189° South 422 486 36,000  Level Fort Worth Center
10:46AM 32.9358 -92.5006 188° South 429 494 36,000  Level Fort Worth Center
10:47AM 32.8342 -92.5208 190° South 422 486 36,000  Level Fort Worth Center
10:48AM 32.7222 -92.5392 188° South 417 480 36,000  Level Fort Worth Center
10:49AM 32.6083 -92.5603 189° South 417 480 36,000  Level Fort Worth Center
10:50AM 32.4203 -92.5969 189° South 410 472 36,000  Level Houston Center
10:51AM 32.3067 -92.6169 188° South 411 473 36,000  Level Houston Center
10:52AM 32.1694 -92.6425 189° South 415 478 36,000  Level Houston Center
10:53AM 32.0550 -92.6633 189° South 414 476 36,000  Level Houston Center
10:54AM 31.9622 -92.7350 213° Southwest 393 452 36,000  Level Houston Center
10:55AM 31.8764 -92.8167 219° Southwest 395 455 36,000  Level Houston Center
10:56AM 31.7869 -92.8950 217° Southwest 401 461 36,000  Level Houston Center
10:58AM 31.6853 -92.9956 220° Southwest 399 459 36,000  Level Houston Center
10:59AM 31.5972 -93.0783 219° Southwest 403 464 36,000  Level Houston Center
11:00AM 31.5089 -93.1594 218° Southwest 406 467 36,000  Level Houston Center
11:01AM 31.4211 -93.2417 219° Southwest 403 464 36,000  Level Houston Center
11:02AM 31.3211 -93.3356 219° Southwest 406 467 36,000  Level Houston Center
11:03AM 31.2453 -93.4050 218° Southwest 403 464 36,000 -720 Level Houston Center
11:04AM 31.1394 -93.5033 219° Southwest 405 466 34,600 -1,680 Descending Houston Center
11:05AM 31.0547 -93.5819 218° Southwest 397 457 32,600 -2,160 Descending Houston Center
11:06AM 30.9683 -93.6597 218° Southwest 393 452 30,100 -2,400 Descending Houston Center
11:07AM 30.8797 -93.7439 219° Southwest 407 468 27,700 -2,280 Descending Houston Center
11:08AM 30.7875 -93.8261 217° Southwest 418 481 25,400 -2,520 Descending Houston Center
11:09AM 30.6819 -93.9236 218° Southwest 409 471 22,600 -2,520 Descending Houston Center
11:10AM 30.5939 -94.0044 218° Southwest 406 467 20,200 -2,280 Descending Houston Center
11:11AM 30.5092 -94.0808 218° Southwest 392 451 17,900 -2,160 Descending Houston Center
11:12AM 30.4292 -94.1533 218° Southwest 373 429 15,800 -2,220 Descending Houston Center
11:13AM 30.3506 -94.2247 218° Southwest 364 419 13,400 -2,580 Descending Houston Center
11:13AM 30.3139 -94.2572 217° Southwest 362 417 12,500 -1,500 Descending Houston Center
11:14AM 30.2569 -94.3103 219° Southwest 358 412 11,900 -540 Descending Houston Center
11:14AM 30.2289 -94.3339 216° Southwest 350 403 11,900 -240 Level Houston Center
11:15AM 30.1972 -94.3806 232° Southwest 305 351 11,700 -1,140 Descending Houston Center
11:16AM 30.1486 -94.4444 229° Southwest 269 310 10,000 -1,800 Descending Houston Center
11:16AM 30.1267 -94.4706 226° Southwest 271 312 9,300 -1,800 Descending Houston Center
11:17AM 30.0942 -94.5144 229° Southwest 276 318 8,200 -1,380 Descending Houston Center
11:17AM 30.0728 -94.5403 226° Southwest 277 319 7,900 -240 Descending Houston Center
11:18AM 30.0603 -94.5864 253° West 262 302 8,000  Climbing Houston Center
11:19AM 30.0528 -94.6178 255° West 259 298 7,900 -600 Descending Houston Center
11:19AM 30.0433 -94.6653 257° West 254 292 7,400 -900 Descending Houston Center
11:20AM 30.0333 -94.6975 250° West 253 291 7,000 -1,020 Descending Houston Center
11:20AM 30.0233 -94.7467 257° West 264 304 6,400 -1,200 Descending Houston Center
11:21AM 30.0142 -94.7822 253° West 275 316 5,800 -1,260 Descending Houston Center
11:21AM 30.0019 -94.8442 257° West 263 303 5,100 -540 Descending Houston Center
11:22AM 29.9922 -94.9122 261° West 219 252 4,900 -120 Descending Houston Center
11:23AM 29.9942 -94.9786 272° West 209 241 4,900 -120 Level Houston Center
11:25AM 29.9925 -95.0647 269° West 205 236 4,700 -540 Descending Houston Center
11:25AM 29.9936 -95.1108 272° West 209 241 3,900 -1,200 Descending Houston Center
11:27AM 29.9928 -95.2022 269° West 203 234 2,300 -1,380 Descending Houston Center